This is the latest recevied weather packets stored in our database for station/object W4EDL-13. If no packets are shown the sender has not sent any weather packets the latest 10 day(s).
| Time | Temp. | Humidity | Pressure | Rain* | Wind** | Luminosity | Snow |
|---|---|---|---|---|---|---|---|
| 1777128600 | 31.11° C | 52% | 1002.9 hPa | - | - | - | - |
| 1777128023 | 29.44° C | 55% | 1002.9 hPa | - | - | - | - |
| 1777128000 | 29.44° C | 55% | 1002.9 hPa | - | - | - | - |
| 1777127422 | 28.33° C | 58% | 1002.9 hPa | - | - | - | - |
| 1777127399 | 28.33° C | 58% | 1002.9 hPa | - | - | - | - |
| 1777126822 | 28.89° C | 57% | 1002.9 hPa | - | - | - | - |
| 1777126799 | 28.89° C | 57% | 1002.9 hPa | - | - | - | - |
| 1777126221 | 28.33° C | 59% | 1002.9 hPa | - | - | - | - |
| 1777126198 | 28.33° C | 59% | 1002.9 hPa | - | - | - | - |
| 1777125621 | 27.22° C | 64% | 1002.9 hPa | - | - | - | - |
| 1777125597 | 26.67° C | 65% | 1002.9 hPa | - | - | - | - |
| 1777125020 | 27.22° C | 62% | 1002.9 hPa | - | - | - | - |
| 1777124996 | 27.78° C | 61% | 1002.9 hPa | - | - | - | - |
| 1777124420 | 26.11° C | 66% | 1002.9 hPa | - | - | - | - |
| 1777124396 | 26.11° C | 66% | 1002.9 hPa | - | - | - | - |
| 1777123819 | 27.78° C | 63% | 1002.9 hPa | - | - | - | - |
| 1777123796 | 27.78° C | 63% | 1002.9 hPa | - | - | - | - |
| 1777123218 | 25° C | 70% | 1002.9 hPa | - | - | - | - |
| 1777123195 | 25° C | 70% | 1002.9 hPa | - | - | - | - |
| 1777122618 | 24.44° C | 71% | 1002.9 hPa | - | - | - | - |
| 1777122594 | 25° C | 72% | 1002.9 hPa | - | - | - | - |
| 1777122017 | 23.89° C | 75% | 1002.9 hPa | - | - | - | - |
| 1777121993 | 23.89° C | 76% | 1002.9 hPa | - | - | - | - |
| 1777121415 | 23.33° C | 76% | 1002.9 hPa | - | - | - | - |
| 1777121393 | 23.33° C | 76% | 1002.9 hPa | - | - | - | - |
* Rain since midnight (hover to see other rain measurements)
** Current wind speed in m/s (hover to see current wind gust speed)